createdAt,value
2022-10-20T00:01:26.276Z,11.30
2022-10-20T00:03:55.699Z,13.02
2022-10-20T00:06:27.267Z,12.90
2022-10-20T00:08:58.109Z,11.65
2022-10-20T00:11:27.579Z,12.50
2022-10-20T00:13:57.793Z,13.57
2022-10-20T00:16:30.719Z,12.70
2022-10-20T00:19:00.242Z,13.23
2022-10-20T00:21:30.336Z,12.90
2022-10-20T00:24:01.849Z,14.00
2022-10-20T00:26:32.573Z,14.98
2022-10-20T00:29:03.515Z,13.30
2022-10-20T00:31:33.668Z,12.45
2022-10-20T00:34:01.768Z,11.40
2022-10-20T00:36:29.979Z,10.88
2022-10-20T00:39:01.350Z,11.80
2022-10-20T00:41:30.721Z,11.45
2022-10-20T00:44:01.408Z,12.07
2022-10-20T00:46:39.799Z,12.38
2022-10-20T00:49:15.452Z,13.27
2022-10-20T00:51:44.862Z,13.43
2022-10-20T00:54:19.364Z,14.55
2022-10-20T00:56:50.316Z,12.90
2022-10-20T00:59:24.411Z,13.15
2022-10-20T01:01:54.808Z,14.10
2022-10-20T01:04:23.527Z,13.52
2022-10-20T01:06:52.061Z,14.07
2022-10-20T01:09:20.262Z,14.07
2022-10-20T01:12:04.418Z,12.82
2022-10-20T01:14:48.480Z,12.63
2022-10-20T01:17:32.344Z,12.07
2022-10-20T01:20:47.299Z,13.07
2022-10-20T01:23:54.537Z,12.57
2022-10-20T01:27:25.465Z,13.93
2022-10-20T01:30:06.846Z,10.85
2022-10-20T01:32:56.330Z,12.63
2022-10-20T01:35:39.179Z,11.98
2022-10-20T01:38:22.870Z,12.55
2022-10-20T01:41:00.085Z,11.40
2022-10-20T01:43:34.935Z,11.13
2022-10-20T01:46:07.591Z,11.40
2022-10-20T01:48:40.238Z,10.95
2022-10-20T01:51:10.852Z,11.90
2022-10-20T01:53:39.083Z,14.25
2022-10-20T01:56:17.418Z,14.40
2022-10-20T01:59:31.290Z,10.98
2022-10-20T02:02:27.213Z,12.75
2022-10-20T02:05:19.610Z,12.35
2022-10-20T02:07:47.790Z,12.13
2022-10-20T02:10:22.638Z,13.68
2022-10-20T02:12:58.143Z,11.73
2022-10-20T02:15:29.816Z,11.88
2022-10-20T02:18:07.663Z,11.45
2022-10-20T02:20:38.139Z,10.23
2022-10-20T02:23:07.751Z,11.57
2022-10-20T02:25:37.517Z,15.02
2022-10-20T02:28:06.801Z,12.02
2022-10-20T02:30:37.939Z,11.18
2022-10-20T02:33:09.086Z,12.55
2022-10-20T02:35:37.373Z,11.95
2022-10-20T02:38:05.520Z,11.95
2022-10-20T02:40:33.551Z,11.60
2022-10-20T02:43:01.610Z,12.63
2022-10-20T02:45:29.740Z,12.75
2022-10-20T02:47:57.866Z,11.38
2022-10-20T02:50:27.671Z,11.27
2022-10-20T02:52:55.726Z,12.80
2022-10-20T02:55:24.061Z,12.82
2022-10-20T02:57:53.881Z,10.80
2022-10-20T03:00:22.429Z,11.77
2022-10-20T03:02:51.383Z,11.88
2022-10-20T03:05:19.485Z,11.30
2022-10-20T03:07:48.903Z,14.45
2022-10-20T03:10:17.121Z,12.35
2022-10-20T03:12:45.291Z,13.52
2022-10-20T03:15:13.478Z,12.80
2022-10-20T03:17:41.673Z,13.32
2022-10-20T03:20:11.422Z,14.27
2022-10-20T03:22:39.503Z,13.75
2022-10-20T03:25:09.390Z,13.50
2022-10-20T03:27:37.727Z,16.58
2022-10-20T03:30:07.320Z,14.80
2022-10-20T03:32:35.812Z,14.95
2022-10-20T03:35:04.351Z,15.48
2022-10-20T03:37:32.398Z,15.60
2022-10-20T03:40:00.414Z,15.05
2022-10-20T03:42:29.793Z,13.98
2022-10-20T03:44:58.322Z,14.73
2022-10-20T03:47:26.769Z,15.18
2022-10-20T03:49:54.999Z,15.98
2022-10-20T03:52:23.149Z,15.77
2022-10-20T03:54:51.571Z,15.65
2022-10-20T03:57:21.093Z,16.50
2022-10-20T03:59:50.557Z,15.98
2022-10-20T04:02:34.784Z,16.55
2022-10-20T04:05:03.775Z,17.45
2022-10-20T04:07:32.468Z,19.77
2022-10-20T04:10:02.220Z,19.38
2022-10-20T04:12:30.640Z,21.00
2022-10-20T04:15:00.165Z,18.08
2022-10-20T04:17:28.457Z,19.48
2022-10-20T04:19:56.587Z,17.25
2022-10-20T04:22:24.598Z,18.00
2022-10-20T04:24:52.641Z,16.83
2022-10-20T04:27:20.633Z,16.38
2022-10-20T04:29:49.284Z,16.70
2022-10-20T04:32:18.622Z,16.98
2022-10-20T04:34:47.358Z,17.50
2022-10-20T04:37:15.465Z,16.05
2022-10-20T04:39:43.501Z,19.13
2022-10-20T04:42:11.555Z,18.55
2022-10-20T04:44:39.616Z,16.17
2022-10-20T04:47:07.768Z,17.13
2022-10-20T04:49:37.276Z,15.13
2022-10-20T04:52:05.711Z,14.40
2022-10-20T04:54:34.049Z,12.27
2022-10-20T04:57:02.143Z,13.55
2022-10-20T04:59:30.331Z,15.27
2022-10-20T05:01:58.503Z,13.07
2022-10-20T05:04:26.866Z,12.65
2022-10-20T05:06:56.417Z,13.48
2022-10-20T05:09:24.451Z,15.90
2022-10-20T05:11:53.586Z,14.38
2022-10-20T05:14:21.959Z,15.65
2022-10-20T05:16:50.032Z,14.52
2022-10-20T05:19:18.645Z,15.05
2022-10-20T05:21:46.801Z,15.98
2022-10-20T05:24:21.427Z,14.85
2022-10-20T05:26:50.949Z,15.60
2022-10-20T05:29:19.042Z,14.32
2022-10-20T05:31:47.087Z,15.75
2022-10-20T05:34:15.276Z,15.80
2022-10-20T05:36:43.407Z,14.63
2022-10-20T05:39:12.255Z,15.73
2022-10-20T05:41:41.673Z,15.73
2022-10-20T05:44:12.877Z,17.17
2022-10-20T05:46:42.551Z,17.15
2022-10-20T05:49:15.641Z,14.52
2022-10-20T05:51:45.498Z,13.88
2022-10-20T05:54:15.058Z,16.08
2022-10-20T05:56:44.919Z,15.98
2022-10-20T05:59:14.146Z,17.10
2022-10-20T06:01:48.193Z,18.45
2022-10-20T06:04:19.014Z,17.23
2022-10-20T06:06:48.893Z,16.90
2022-10-20T06:09:18.211Z,18.08
2022-10-20T06:11:47.908Z,21.15
2022-10-20T06:14:17.321Z,17.50
2022-10-20T06:16:45.988Z,15.80
2022-10-20T06:19:13.972Z,15.93
2022-10-20T06:24:12.260Z,15.38
2022-10-20T06:26:41.380Z,15.73
2022-10-20T06:29:15.205Z,14.63
2022-10-20T06:31:46.306Z,14.13
2022-10-20T06:34:18.778Z,13.68
2022-10-20T06:36:48.038Z,14.40
2022-10-20T06:39:19.749Z,13.93
2022-10-20T06:41:50.506Z,12.65
2022-10-20T06:44:21.530Z,12.20
2022-10-20T06:46:52.229Z,11.30
2022-10-20T06:49:21.266Z,11.57
2022-10-20T06:51:49.627Z,13.13
2022-10-20T06:54:18.007Z,12.85
2022-10-20T06:56:46.256Z,15.98
2022-10-20T06:59:14.315Z,12.52
2022-10-20T07:01:43.853Z,11.98
2022-10-20T07:04:15.981Z,12.68
2022-10-20T07:06:46.868Z,11.68
2022-10-20T07:09:18.036Z,11.80
2022-10-20T07:11:47.002Z,11.60
2022-10-20T07:14:15.326Z,10.52
2022-10-20T07:16:44.790Z,11.15
2022-10-20T07:19:13.155Z,11.27
2022-10-20T07:21:45.040Z,11.18
2022-10-20T07:24:15.461Z,10.45
2022-10-20T07:26:43.644Z,11.35
2022-10-20T07:29:13.146Z,10.13
2022-10-20T07:31:46.239Z,8.85
2022-10-20T07:34:25.830Z,10.93
2022-10-20T07:36:56.781Z,9.77
2022-10-20T07:39:25.841Z,8.95
2022-10-20T07:41:54.080Z,9.93
2022-10-20T07:44:22.210Z,9.13
2022-10-20T07:46:51.718Z,9.32
2022-10-20T07:52:08.096Z,9.05
2022-10-20T07:54:36.222Z,9.35
2022-10-20T07:57:04.747Z,9.75
2022-10-20T07:59:32.801Z,10.10
2022-10-20T08:02:02.610Z,8.27
2022-10-20T08:04:32.112Z,8.40
2022-10-20T08:07:01.247Z,10.43
2022-10-20T08:09:29.356Z,9.35
2022-10-20T08:11:57.491Z,9.10
2022-10-20T08:14:27.831Z,9.05
2022-10-20T08:17:04.373Z,8.27
2022-10-20T08:19:39.906Z,8.18
2022-10-20T08:22:08.087Z,7.72
2022-10-20T08:24:36.572Z,7.63
2022-10-20T08:27:05.156Z,9.70
2022-10-20T08:29:33.285Z,8.55
2022-10-20T08:32:01.373Z,7.40
2022-10-20T08:34:29.838Z,9.13
2022-10-20T08:37:00.151Z,7.93
2022-10-20T08:39:28.407Z,8.88
2022-10-20T08:42:13.408Z,9.18
2022-10-20T08:44:47.134Z,9.68
2022-10-20T08:47:30.649Z,8.85
2022-10-20T08:50:03.582Z,9.23
2022-10-20T08:52:34.477Z,10.48
2022-10-20T08:55:06.614Z,10.52
2022-10-20T08:57:37.366Z,8.75
2022-10-20T09:00:18.324Z,9.80
2022-10-20T09:02:48.117Z,8.93
2022-10-20T09:05:20.239Z,9.80
2022-10-20T09:07:51.467Z,10.95
2022-10-20T09:10:35.505Z,11.00
2022-10-20T09:13:12.155Z,10.52
2022-10-20T09:15:41.274Z,9.82
2022-10-20T09:18:15.628Z,8.57
2022-10-20T09:20:52.119Z,9.75
2022-10-20T09:23:40.499Z,10.80
2022-10-20T09:26:24.964Z,11.60
2022-10-20T09:29:14.618Z,10.73
2022-10-20T09:31:45.861Z,10.48
2022-10-20T09:34:28.587Z,10.48
2022-10-20T09:37:02.966Z,10.75
2022-10-20T09:39:41.788Z,11.15
2022-10-20T09:42:19.427Z,10.10
2022-10-20T09:44:53.705Z,10.63
2022-10-20T09:47:26.826Z,11.48
2022-10-20T09:50:02.896Z,9.88
2022-10-20T09:52:48.784Z,11.17
2022-10-20T09:56:24.776Z,11.77
2022-10-20T09:58:53.589Z,10.02
2022-10-20T10:01:22.714Z,10.57
2022-10-20T10:03:53.210Z,10.40
2022-10-20T10:06:44.584Z,10.23
2022-10-20T10:09:31.103Z,10.20
2022-10-20T10:12:04.538Z,9.17
2022-10-20T10:14:35.552Z,10.73
2022-10-20T10:17:03.919Z,10.02
2022-10-20T10:19:35.770Z,11.20
2022-10-20T10:22:05.445Z,10.32
2022-10-20T10:24:47.134Z,11.63
2022-10-20T10:27:27.189Z,11.93
2022-10-20T10:29:57.001Z,10.30
2022-10-20T10:32:28.495Z,9.88
2022-10-20T10:35:23.690Z,11.52
2022-10-20T10:37:54.362Z,10.38
2022-10-20T10:40:33.367Z,11.90
2022-10-20T10:43:22.113Z,11.40
2022-10-20T10:45:58.851Z,14.43
2022-10-20T10:49:23.492Z,11.20
2022-10-20T10:52:09.445Z,10.07
2022-10-20T10:54:57.445Z,11.40
2022-10-20T10:57:33.427Z,10.43
2022-10-20T11:00:14.564Z,9.73
2022-10-20T11:03:02.141Z,8.10
2022-10-20T11:06:05.478Z,8.45
2022-10-20T11:12:14.895Z,8.30
2022-10-20T11:15:02.907Z,6.57
2022-10-20T11:17:56.733Z,10.38
2022-10-20T11:20:57.790Z,7.07
2022-10-20T11:24:01.137Z,9.07
2022-10-20T11:26:35.064Z,7.80
2022-10-20T11:29:10.133Z,7.75
2022-10-20T11:31:49.640Z,6.38
2022-10-20T11:34:28.986Z,7.68
2022-10-20T11:37:07.548Z,6.60
2022-10-20T11:39:46.874Z,7.55
2022-10-20T11:42:27.302Z,7.00
2022-10-20T11:44:58.028Z,7.50
2022-10-20T11:47:35.778Z,6.07
2022-10-20T11:50:11.265Z,5.97
2022-10-20T11:53:09.692Z,6.30
2022-10-20T11:55:58.941Z,7.10
2022-10-20T11:59:02.702Z,6.80
2022-10-20T12:01:38.821Z,7.75
2022-10-20T12:04:40.791Z,7.03
2022-10-20T12:07:49.783Z,6.40
2022-10-20T12:10:40.349Z,5.85
2022-10-20T12:13:32.836Z,6.55
2022-10-20T12:16:01.632Z,5.60
2022-10-20T12:18:32.718Z,7.60
2022-10-20T12:21:04.014Z,6.22
2022-10-20T12:24:04.889Z,6.88
2022-10-20T12:27:19.070Z,5.22
2022-10-20T12:30:02.922Z,5.18
2022-10-20T12:33:10.657Z,6.10
2022-10-20T12:36:14.826Z,5.85
2022-10-20T12:38:45.623Z,5.55
2022-10-20T12:41:29.757Z,6.53
2022-10-20T12:44:04.639Z,7.10
2022-10-20T12:46:37.366Z,6.22
2022-10-20T12:49:11.811Z,6.03
2022-10-20T12:51:50.408Z,7.65
2022-10-20T12:54:27.251Z,5.93
2022-10-20T12:59:46.748Z,7.07
2022-10-20T13:02:43.905Z,7.13
2022-10-20T13:05:49.289Z,6.13
2022-10-20T13:08:32.763Z,6.75
2022-10-20T13:11:43.195Z,6.85
2022-10-20T13:14:45.340Z,5.97
2022-10-20T13:17:27.878Z,6.85
2022-10-20T13:20:03.870Z,6.00
2022-10-20T13:22:43.010Z,5.23
2022-10-20T13:25:40.199Z,5.00
2022-10-20T13:28:20.482Z,6.03
2022-10-20T13:31:12.048Z,5.53
2022-10-20T13:34:03.830Z,4.68
2022-10-20T13:36:57.841Z,4.75
2022-10-20T13:39:38.701Z,6.40
2022-10-20T13:42:25.787Z,5.45
2022-10-20T13:45:08.610Z,5.05
2022-10-20T13:47:52.543Z,5.82
2022-10-20T13:50:25.154Z,5.95
2022-10-20T13:52:58.471Z,6.57
2022-10-20T13:55:31.821Z,4.88
2022-10-20T13:58:08.565Z,4.78
2022-10-20T14:03:18.887Z,4.78
2022-10-20T14:05:47.055Z,3.60
2022-10-20T14:08:20.000Z,4.93
2022-10-20T14:10:55.812Z,4.70
2022-10-20T14:13:28.422Z,3.80
2022-10-20T14:16:00.122Z,3.60
2022-10-20T14:18:35.136Z,4.13
2022-10-20T14:21:08.420Z,4.53
2022-10-20T14:23:41.754Z,5.38
2022-10-20T14:26:16.846Z,3.75
2022-10-20T14:28:46.378Z,3.83
2022-10-20T14:31:16.313Z,3.88
2022-10-20T14:33:48.987Z,4.50
2022-10-20T14:36:23.867Z,4.13
2022-10-20T14:38:55.938Z,3.60
2022-10-20T14:41:27.915Z,4.20
2022-10-20T14:44:05.054Z,4.20
2022-10-20T14:46:40.524Z,4.72
2022-10-20T14:49:19.018Z,4.75
2022-10-20T14:51:57.080Z,3.80
2022-10-20T14:57:39.901Z,5.90
2022-10-20T15:00:33.428Z,4.45
2022-10-20T15:03:06.928Z,5.53
2022-10-20T15:05:44.385Z,6.15
2022-10-20T15:08:26.679Z,5.10
2022-10-20T15:10:55.504Z,5.68
2022-10-20T15:13:28.374Z,5.80
2022-10-20T15:15:58.303Z,6.57
2022-10-20T15:18:28.060Z,6.65
2022-10-20T15:20:58.442Z,5.32
2022-10-20T15:23:28.883Z,5.82
2022-10-20T15:26:03.039Z,6.47
2022-10-20T15:28:37.687Z,6.47
2022-10-20T15:31:09.420Z,7.68
2022-10-20T15:33:37.948Z,10.50
2022-10-20T15:36:15.054Z,9.52
2022-10-20T15:38:43.523Z,9.77
2022-10-20T15:41:15.186Z,12.00
2022-10-20T15:43:43.712Z,8.02
2022-10-20T15:46:14.001Z,10.13
2022-10-20T15:48:44.140Z,8.35
2022-10-20T15:51:21.649Z,9.73
2022-10-20T15:53:49.998Z,10.40
2022-10-20T15:56:18.339Z,10.25
2022-10-20T15:58:46.886Z,12.18
2022-10-20T16:01:16.752Z,13.00
2022-10-20T16:03:45.312Z,10.60
2022-10-20T16:06:18.332Z,10.38
2022-10-20T16:08:49.122Z,11.73
2022-10-20T16:11:19.479Z,11.75
2022-10-20T16:13:47.971Z,10.23
2022-10-20T16:16:19.450Z,12.15
2022-10-20T16:18:48.467Z,12.55
2022-10-20T16:21:18.262Z,12.65
2022-10-20T16:23:46.901Z,12.85
2022-10-20T16:26:16.068Z,12.32
2022-10-20T16:28:44.515Z,10.20
2022-10-20T16:31:15.939Z,13.25
2022-10-20T16:33:44.743Z,11.60
2022-10-20T16:36:15.337Z,9.85
2022-10-20T16:38:45.183Z,9.68
2022-10-20T16:41:16.420Z,8.40
2022-10-20T16:43:46.938Z,9.55
2022-10-20T16:46:16.935Z,10.02
2022-10-20T16:48:48.010Z,9.85
2022-10-20T16:51:17.668Z,9.93
2022-10-20T16:53:47.210Z,9.20
2022-10-20T16:56:18.318Z,8.90
2022-10-20T16:58:49.679Z,9.43
2022-10-20T17:01:20.680Z,9.13
2022-10-20T17:03:51.534Z,11.15
2022-10-20T17:06:22.917Z,8.82
2022-10-20T17:08:53.241Z,8.63
2022-10-20T17:11:24.887Z,9.80
2022-10-20T17:13:54.518Z,11.13
2022-10-20T17:16:28.425Z,12.13
2022-10-20T17:18:59.401Z,12.05
2022-10-20T17:21:29.205Z,8.30
2022-10-20T17:23:59.789Z,10.55
2022-10-20T17:26:31.462Z,8.50
2022-10-20T17:29:02.082Z,9.38
2022-10-20T17:31:30.550Z,8.90
2022-10-20T17:33:59.815Z,9.75
2022-10-20T17:36:29.758Z,8.05
2022-10-20T17:39:02.148Z,8.60
2022-10-20T17:41:31.152Z,8.18
2022-10-20T17:44:01.602Z,7.25
2022-10-20T17:46:30.081Z,7.60
2022-10-20T17:48:58.260Z,8.45
2022-10-20T17:51:30.392Z,6.90
2022-10-20T17:54:03.879Z,7.30
2022-10-20T17:56:35.989Z,7.22
2022-10-20T17:59:07.409Z,7.32
2022-10-20T18:01:38.744Z,5.75
2022-10-20T18:04:10.647Z,7.07
2022-10-20T18:06:40.431Z,5.82
2022-10-20T18:09:13.745Z,6.22
2022-10-20T18:11:46.384Z,6.05
2022-10-20T18:14:14.821Z,6.32
2022-10-20T18:16:42.881Z,5.95
2022-10-20T18:19:16.397Z,6.97
2022-10-20T18:21:44.909Z,7.15
2022-10-20T18:24:17.009Z,6.13
2022-10-20T18:26:46.044Z,6.80
2022-10-20T18:29:16.594Z,6.07
2022-10-20T18:31:47.672Z,6.10
2022-10-20T18:34:20.499Z,7.95
2022-10-20T18:36:49.500Z,6.78
2022-10-20T18:39:19.756Z,7.57
2022-10-20T18:41:52.182Z,6.88
2022-10-20T18:44:21.998Z,8.18
2022-10-20T18:46:51.338Z,7.10
2022-10-20T18:49:21.543Z,8.75
2022-10-20T18:51:49.981Z,9.05
2022-10-20T18:54:21.331Z,9.40
2022-10-20T18:56:49.478Z,8.48
2022-10-20T18:59:17.889Z,7.78
2022-10-20T19:01:48.221Z,8.02
2022-10-20T19:04:16.343Z,7.28
2022-10-20T19:06:46.915Z,7.88
2022-10-20T19:09:18.112Z,8.10
2022-10-20T19:14:23.019Z,9.25
2022-10-20T19:16:51.140Z,9.20
2022-10-20T19:19:19.689Z,10.50
2022-10-20T19:21:47.791Z,10.73
2022-10-20T19:24:20.509Z,9.55
2022-10-20T19:26:57.505Z,9.43
2022-10-20T19:32:07.784Z,10.07
2022-10-20T19:34:39.082Z,12.23
2022-10-20T19:37:08.061Z,12.10
2022-10-20T19:39:40.992Z,13.38
2022-10-20T19:42:13.679Z,11.60
2022-10-20T19:44:42.001Z,12.25
2022-10-20T19:47:10.805Z,10.90
2022-10-20T19:49:40.262Z,10.73
2022-10-20T19:52:09.145Z,11.32
2022-10-20T19:54:37.358Z,9.98
2022-10-20T19:57:06.179Z,9.90
2022-10-20T19:59:35.741Z,9.82
2022-10-20T20:02:03.918Z,7.22
2022-10-20T20:04:31.925Z,8.30
2022-10-20T20:07:02.329Z,8.57
2022-10-20T20:09:31.049Z,7.50
2022-10-20T20:11:59.196Z,7.93
2022-10-20T20:14:27.425Z,7.40
2022-10-20T20:16:56.896Z,7.95
2022-10-20T20:19:24.989Z,7.60
2022-10-20T20:21:53.176Z,8.15
2022-10-20T20:24:21.224Z,6.78
2022-10-20T20:26:50.064Z,6.68
2022-10-20T20:29:18.135Z,6.40
2022-10-20T20:31:47.994Z,7.35
2022-10-20T20:34:17.814Z,6.70
2022-10-20T20:36:46.001Z,7.07
2022-10-20T20:39:14.082Z,5.78
2022-10-20T20:41:42.178Z,6.85
2022-10-20T20:44:10.667Z,5.55
2022-10-20T20:46:38.831Z,5.63
2022-10-20T20:49:07.198Z,6.25
2022-10-20T20:51:36.823Z,5.68
2022-10-20T20:54:05.396Z,6.32
2022-10-20T20:56:33.703Z,6.32
2022-10-20T20:59:01.868Z,6.25
2022-10-20T21:01:32.173Z,7.07
2022-10-20T21:04:02.166Z,7.28
2022-10-20T21:07:00.238Z,8.77
2022-10-20T21:09:24.132Z,8.75
2022-10-20T21:11:52.183Z,8.43
2022-10-20T21:14:20.643Z,9.50
2022-10-20T21:16:48.715Z,7.47
2022-10-20T21:19:16.818Z,4.28
2022-10-20T21:21:50.535Z,0.90
2022-10-20T21:24:20.686Z,0.03
2022-10-20T21:26:48.721Z,0.20
2022-10-20T21:29:16.994Z,1.85
2022-10-20T21:31:45.199Z,0.00
2022-10-20T21:34:13.445Z,1.20
2022-10-20T21:36:41.423Z,0.00
2022-10-20T21:39:15.461Z,1.20
2022-10-20T21:41:46.466Z,0.10
2022-10-20T21:44:15.694Z,0.47
2022-10-20T21:46:47.691Z,0.93
2022-10-20T21:49:19.500Z,0.00
2022-10-20T21:51:52.175Z,0.00
2022-10-20T21:54:23.062Z,0.00
2022-10-20T21:56:54.163Z,0.63
2022-10-20T21:59:25.011Z,0.00
2022-10-20T22:01:55.072Z,0.08
2022-10-20T22:04:27.376Z,0.10
2022-10-20T22:06:56.384Z,0.00
2022-10-20T22:09:25.071Z,0.65
2022-10-20T22:11:58.354Z,0.00
2022-10-20T22:14:26.672Z,0.00
2022-10-20T22:16:55.472Z,0.00
2022-10-20T22:19:25.956Z,0.10
2022-10-20T22:21:55.361Z,0.00
2022-10-20T22:24:24.194Z,0.95
2022-10-20T22:26:54.780Z,0.00
2022-10-20T22:29:23.986Z,0.43
2022-10-20T22:31:52.447Z,0.00
2022-10-20T22:34:20.524Z,0.00
2022-10-20T22:36:48.949Z,0.00
2022-10-20T22:39:16.993Z,0.00
2022-10-20T22:41:45.154Z,0.60
2022-10-20T22:44:14.719Z,0.00
2022-10-20T22:46:42.660Z,0.17
2022-10-20T22:49:12.515Z,0.00
2022-10-20T22:51:40.521Z,0.00
2022-10-20T22:54:08.974Z,0.10
2022-10-20T22:56:37.189Z,0.00
2022-10-20T22:59:05.229Z,0.10
2022-10-20T23:01:34.801Z,0.05
2022-10-20T23:04:02.845Z,0.47
2022-10-20T23:06:30.825Z,0.00
2022-10-20T23:08:59.370Z,0.25
2022-10-20T23:11:27.636Z,0.00
2022-10-20T23:13:55.671Z,0.00
2022-10-20T23:18:59.212Z,0.98
2022-10-20T23:21:27.428Z,0.00
2022-10-20T23:23:56.272Z,0.00
2022-10-20T23:26:24.403Z,0.63
2022-10-20T23:28:52.473Z,0.00
2022-10-20T23:31:22.722Z,0.20
2022-10-20T23:33:55.498Z,0.08
2022-10-20T23:36:25.366Z,0.00
2022-10-20T23:38:53.628Z,0.00
2022-10-20T23:41:21.863Z,0.75
2022-10-20T23:43:49.984Z,0.20
2022-10-20T23:46:18.059Z,0.00
2022-10-20T23:48:46.094Z,1.13
2022-10-20T23:51:14.330Z,0.10
2022-10-20T23:53:43.762Z,0.00
2022-10-20T23:56:11.799Z,0.30
2022-10-20T23:58:40.997Z,0.00
